Time;durP1;ratioP1;P1;durP2;ratioP2;P2;SDS_P1;SDS_P2;PMS_P1;PMS_P2;Temp;Humidity;BMP_temperature;BMP_pressure;BME280_temperature;BME280_humidity;BME280_pressure;Samples;Min_cycle;Max_cycle;Signal;HPM_P1;HPM_P2
2022/07/13 00:01:25;;;;;;;19.35;16.00;;;;;;;;;;4981005;28;20046;-67
2022/07/13 00:03:53;;;;;;;19.08;15.48;;;;;;;;;;4963645;28;20073;-67
2022/07/13 00:06:20;;;;;;;20.70;16.60;;;;;;;;;;4981906;28;20108;-66
2022/07/13 00:08:47;;;;;;;22.65;16.10;;;;;;;;;;4984824;28;20045;-66
2022/07/13 00:11:14;;;;;;;21.77;16.98;;;;;;;;;;4969870;28;20046;-66
2022/07/13 00:13:41;;;;;;;24.35;17.00;;;;;;;;;;4984498;28;20075;-67
2022/07/13 00:16:10;;;;;;;22.35;16.58;;;;;;;;;;4985620;28;20522;-66
2022/07/13 00:18:37;;;;;;;19.60;15.88;;;;;;;;;;4984874;28;20042;-66
2022/07/13 00:21:04;;;;;;;19.60;15.77;;;;;;;;;;4984988;28;20042;-67
2022/07/13 00:23:32;;;;;;;19.90;15.60;;;;;;;;;;4965718;28;20074;-68
2022/07/13 00:25:59;;;;;;;20.00;16.50;;;;;;;;;;4985030;28;20054;-66
2022/07/13 00:28:26;;;;;;;17.80;15.38;;;;;;;;;;4983125;28;20733;-66
2022/07/13 00:30:53;;;;;;;22.95;15.75;;;;;;;;;;4982931;28;20042;-67
2022/07/13 00:33:22;;;;;;;20.15;16.38;;;;;;;;;;4987435;28;20054;-67
2022/07/13 00:35:49;;;;;;;21.02;16.00;;;;;;;;;;4987748;28;20108;-65
2022/07/13 00:38:16;;;;;;;20.88;15.73;;;;;;;;;;4986713;28;20057;-67
2022/07/13 00:40:43;;;;;;;17.40;14.93;;;;;;;;;;4984833;28;20104;-66
2022/07/13 00:43:11;;;;;;;18.08;14.80;;;;;;;;;;4984072;28;20500;-67
2022/07/13 00:45:38;;;;;;;19.40;15.02;;;;;;;;;;4984999;28;20387;-67
2022/07/13 00:48:06;;;;;;;21.20;15.13;;;;;;;;;;4983574;28;20053;-66
2022/07/13 00:50:34;;;;;;;18.90;15.07;;;;;;;;;;4987199;28;20520;-66
2022/07/13 00:53:02;;;;;;;22.13;15.05;;;;;;;;;;4982081;28;20461;-67
2022/07/13 00:55:29;;;;;;;18.90;15.13;;;;;;;;;;4985234;28;20050;-66
2022/07/13 00:57:57;;;;;;;17.95;14.43;;;;;;;;;;4982266;28;20054;-66
2022/07/13 01:00:25;;;;;;;21.88;14.65;;;;;;;;;;4985359;28;20505;-66
2022/07/13 01:02:52;;;;;;;21.65;15.15;;;;;;;;;;4983427;28;20046;-67
2022/07/13 01:05:20;;;;;;;18.23;15.23;;;;;;;;;;4985421;28;20058;-66
2022/07/13 01:07:49;;;;;;;21.80;15.70;;;;;;;;;;4983877;28;20054;-66
2022/07/13 01:10:16;;;;;;;19.90;15.43;;;;;;;;;;4982222;28;20050;-66
2022/07/13 01:12:44;;;;;;;17.77;15.32;;;;;;;;;;4983567;28;20051;-67
2022/07/13 01:15:11;;;;;;;21.65;15.80;;;;;;;;;;4984380;28;20058;-66
2022/07/13 01:17:40;;;;;;;20.17;15.20;;;;;;;;;;4980905;28;20054;-66
2022/07/13 01:20:08;;;;;;;18.70;15.43;;;;;;;;;;4970512;28;20132;-66
2022/07/13 01:22:36;;;;;;;19.67;15.73;;;;;;;;;;4966292;28;20046;-66
2022/07/13 01:25:06;;;;;;;17.20;14.73;;;;;;;;;;4984342;28;20058;-65
2022/07/13 01:27:34;;;;;;;18.35;15.35;;;;;;;;;;4983163;28;20054;-66
2022/07/13 01:30:02;;;;;;;19.73;15.27;;;;;;;;;;4964579;28;20764;-66
2022/07/13 01:32:29;;;;;;;22.90;14.70;;;;;;;;;;4984991;28;20054;-66
2022/07/13 01:34:56;;;;;;;16.83;14.88;;;;;;;;;;4984247;28;20108;-66
2022/07/13 01:37:23;;;;;;;17.05;14.40;;;;;;;;;;4980923;28;20509;-67
2022/07/13 01:39:50;;;;;;;17.02;14.15;;;;;;;;;;4984492;28;20093;-66
2022/07/13 01:42:19;;;;;;;16.58;14.88;;;;;;;;;;4982487;28;20109;-66
2022/07/13 01:44:47;;;;;;;17.65;14.93;;;;;;;;;;4983845;28;20058;-67
2022/07/13 01:47:14;;;;;;;17.80;15.80;;;;;;;;;;4982599;28;20046;-68
2022/07/13 01:49:41;;;;;;;17.33;15.48;;;;;;;;;;4983687;28;20097;-66
2022/07/13 01:52:08;;;;;;;19.92;15.68;;;;;;;;;;4980947;28;20046;-66
2022/07/13 01:54:36;;;;;;;19.67;15.43;;;;;;;;;;4982306;28;20056;-66
2022/07/13 01:57:03;;;;;;;18.67;14.98;;;;;;;;;;4982882;28;20750;-66
2022/07/13 01:59:31;;;;;;;19.20;14.25;;;;;;;;;;4983433;28;20457;-67
2022/07/13 02:01:58;;;;;;;18.77;14.55;;;;;;;;;;4983759;28;20093;-66
2022/07/13 02:04:26;;;;;;;16.60;14.18;;;;;;;;;;4983389;28;20050;-66
2022/07/13 02:06:53;;;;;;;16.77;13.55;;;;;;;;;;4983476;28;20441;-66
2022/07/13 02:09:20;;;;;;;17.02;13.13;;;;;;;;;;4981673;28;20054;-67
2022/07/13 02:11:47;;;;;;;17.48;12.57;;;;;;;;;;4983742;28;20066;-67
2022/07/13 02:14:14;;;;;;;18.75;13.20;;;;;;;;;;4983104;28;20057;-66
2022/07/13 02:16:43;;;;;;;19.30;12.63;;;;;;;;;;4985812;28;20109;-67
2022/07/13 02:19:11;;;;;;;13.73;12.23;;;;;;;;;;4978040;28;20109;-67
2022/07/13 02:21:38;;;;;;;13.27;11.30;;;;;;;;;;4983674;28;20476;-66
2022/07/13 02:24:05;;;;;;;12.93;10.93;;;;;;;;;;4982860;28;20528;-68
2022/07/13 02:26:32;;;;;;;14.23;10.63;;;;;;;;;;4983422;28;20070;-67
2022/07/13 02:29:00;;;;;;;11.65;9.75;;;;;;;;;;4981618;28;20062;-67
2022/07/13 02:31:27;;;;;;;13.82;9.75;;;;;;;;;;4986679;28;20614;-67
2022/07/13 02:33:55;;;;;;;12.55;9.38;;;;;;;;;;4981762;28;20050;-67
2022/07/13 02:36:23;;;;;;;11.30;9.73;;;;;;;;;;4982947;28;20057;-66
2022/07/13 02:38:50;;;;;;;11.52;9.70;;;;;;;;;;4981430;28;20042;-66
2022/07/13 02:41:17;;;;;;;15.27;9.68;;;;;;;;;;4983244;28;20698;-67
2022/07/13 02:43:44;;;;;;;13.18;10.00;;;;;;;;;;4978757;28;20050;-66
2022/07/13 02:46:11;;;;;;;12.18;10.27;;;;;;;;;;4983861;28;20050;-66
2022/07/13 02:48:38;;;;;;;11.85;10.30;;;;;;;;;;4974384;28;20840;-67
2022/07/13 02:51:07;;;;;;;13.82;10.85;;;;;;;;;;4981186;28;20108;-66
2022/07/13 02:53:34;;;;;;;11.70;9.80;;;;;;;;;;4984004;28;20085;-66
2022/07/13 02:56:01;;;;;;;13.73;10.55;;;;;;;;;;4975096;28;20051;-66
2022/07/13 02:58:29;;;;;;;12.20;10.38;;;;;;;;;;4980880;28;20089;-67
2022/07/13 03:00:56;;;;;;;13.13;10.25;;;;;;;;;;4981899;28;20046;-66
2022/07/13 03:03:23;;;;;;;12.50;10.45;;;;;;;;;;4964111;28;20113;-66
2022/07/13 03:05:51;;;;;;;13.98;11.13;;;;;;;;;;4980276;28;20081;-66
2022/07/13 03:08:19;;;;;;;11.95;10.32;;;;;;;;;;4976746;28;20038;-67
2022/07/13 03:10:46;;;;;;;13.07;10.52;;;;;;;;;;4974707;28;20050;-66
2022/07/13 03:13:16;;;;;;;15.52;10.63;;;;;;;;;;4980399;28;20054;-66
2022/07/13 03:15:44;;;;;;;12.50;9.93;;;;;;;;;;4983418;28;20505;-68
2022/07/13 03:18:11;;;;;;;11.73;10.07;;;;;;;;;;4974626;28;20121;-67
2022/07/13 03:20:38;;;;;;;13.20;10.13;;;;;;;;;;4966068;28;20046;-68
2022/07/13 03:23:05;;;;;;;11.65;10.10;;;;;;;;;;4979649;28;20509;-67
2022/07/13 03:25:34;;;;;;;16.88;10.82;;;;;;;;;;4975942;28;20777;-66
2022/07/13 03:28:01;;;;;;;13.45;10.70;;;;;;;;;;4982285;28;20068;-67
2022/07/13 03:30:28;;;;;;;13.27;11.02;;;;;;;;;;4956404;28;20059;-66
2022/07/13 03:32:55;;;;;;;13.82;11.02;;;;;;;;;;4981514;28;20050;-67
2022/07/13 03:35:23;;;;;;;14.70;10.43;;;;;;;;;;4975826;28;20046;-66
2022/07/13 03:37:50;;;;;;;12.02;10.60;;;;;;;;;;4981510;28;20070;-67
2022/07/13 03:40:17;;;;;;;13.35;11.18;;;;;;;;;;4980866;28;20054;-68
2022/07/13 03:42:46;;;;;;;12.68;10.98;;;;;;;;;;4963465;28;20053;-67
2022/07/13 03:45:13;;;;;;;13.25;11.02;;;;;;;;;;4961850;28;20121;-67
2022/07/13 03:47:41;;;;;;;12.32;10.35;;;;;;;;;;4964901;28;20497;-68
2022/07/13 03:50:08;;;;;;;12.35;10.43;;;;;;;;;;4962106;28;20055;-67
2022/07/13 03:52:35;;;;;;;14.60;10.75;;;;;;;;;;4962664;28;20065;-67
2022/07/13 03:55:02;;;;;;;13.30;10.05;;;;;;;;;;4961239;28;20082;-67
2022/07/13 03:57:30;;;;;;;15.65;10.85;;;;;;;;;;4958444;28;20117;-67
2022/07/13 03:59:58;;;;;;;11.07;9.88;;;;;;;;;;4962447;28;20627;-67
2022/07/13 04:02:25;;;;;;;11.55;9.77;;;;;;;;;;4963892;28;20154;-67
2022/07/13 04:04:52;;;;;;;15.93;10.73;;;;;;;;;;4963601;28;20057;-67
2022/07/13 04:07:20;;;;;;;18.80;10.07;;;;;;;;;;4962101;28;20129;-67
2022/07/13 04:09:47;;;;;;;13.52;10.23;;;;;;;;;;4962373;28;20055;-67
2022/07/13 04:12:14;;;;;;;11.23;9.07;;;;;;;;;;4964001;28;21176;-67
2022/07/13 04:14:41;;;;;;;13.13;9.13;;;;;;;;;;4946865;28;20117;-68
2022/07/13 04:17:10;;;;;;;11.63;8.95;;;;;;;;;;4964987;28;20051;-67
2022/07/13 04:19:37;;;;;;;11.30;7.80;;;;;;;;;;4962389;28;20074;-66
2022/07/13 04:22:04;;;;;;;11.88;7.95;;;;;;;;;;4964232;28;20058;-67
2022/07/13 04:24:31;;;;;;;12.02;7.30;;;;;;;;;;4966471;28;20474;-66
2022/07/13 04:26:59;;;;;;;8.00;6.40;;;;;;;;;;4965519;28;20046;-66
2022/07/13 04:29:26;;;;;;;11.32;5.35;;;;;;;;;;4961299;28;20058;-67
2022/07/13 04:31:53;;;;;;;11.25;5.20;;;;;;;;;;4962774;28;20687;-67
2022/07/13 04:34:22;;;;;;;6.53;4.55;;;;;;;;;;4963003;28;20105;-66
2022/07/13 04:36:49;;;;;;;6.53;4.13;;;;;;;;;;4963477;28;20070;-65
2022/07/13 04:39:16;;;;;;;8.45;4.55;;;;;;;;;;4963291;28;20942;-66
2022/07/13 04:41:44;;;;;;;8.88;4.85;;;;;;;;;;4974561;28;20768;-67
2022/07/13 04:44:11;;;;;;;8.05;4.93;;;;;;;;;;4980719;28;20152;-67
2022/07/13 04:46:38;;;;;;;6.72;4.78;;;;;;;;;;4980291;28;20046;-67
2022/07/13 04:49:05;;;;;;;8.63;4.95;;;;;;;;;;4981329;28;20046;-66
2022/07/13 04:51:35;;;;;;;6.65;4.80;;;;;;;;;;4978240;28;20490;-67
2022/07/13 04:54:02;;;;;;;7.38;4.40;;;;;;;;;;4965483;28;20502;-67
2022/07/13 04:56:30;;;;;;;8.45;5.20;;;;;;;;;;4985516;28;20199;-66
2022/07/13 04:58:57;;;;;;;12.10;5.28;;;;;;;;;;4983395;28;20117;-67
2022/07/13 05:01:24;;;;;;;11.77;5.68;;;;;;;;;;4984045;28;20108;-67
2022/07/13 05:03:52;;;;;;;11.13;5.85;;;;;;;;;;4969572;28;20093;-67
2022/07/13 05:06:19;;;;;;;9.63;5.72;;;;;;;;;;4984236;28;20046;-67
2022/07/13 05:08:48;;;;;;;8.15;5.75;;;;;;;;;;4977392;28;20046;-67
2022/07/13 05:11:15;;;;;;;12.98;5.63;;;;;;;;;;4981748;28;20058;-67
2022/07/13 05:13:42;;;;;;;10.02;5.45;;;;;;;;;;4984335;28;20042;-67
2022/07/13 05:16:10;;;;;;;10.55;5.57;;;;;;;;;;4978844;28;20058;-67
2022/07/13 05:18:37;;;;;;;13.82;5.07;;;;;;;;;;4982790;28;20138;-66
2022/07/13 05:21:04;;;;;;;15.57;5.22;;;;;;;;;;4982482;28;20062;-66
2022/07/13 05:23:31;;;;;;;17.67;6.20;;;;;;;;;;4982727;28;20043;-66
2022/07/13 05:26:00;;;;;;;8.82;5.55;;;;;;;;;;4981881;28;20050;-67
2022/07/13 05:28:28;;;;;;;11.63;5.47;;;;;;;;;;4983035;28;20051;-67
2022/07/13 05:30:55;;;;;;;12.35;6.25;;;;;;;;;;4984474;28;20061;-67
2022/07/13 05:33:22;;;;;;;50.42;10.10;;;;;;;;;;4982502;28;20050;-67
2022/07/13 05:35:49;;;;;;;27.38;9.27;;;;;;;;;;4988952;28;20108;-66
2022/07/13 05:38:17;;;;;;;19.67;6.97;;;;;;;;;;4983006;28;20050;-66
2022/07/13 05:40:45;;;;;;;16.70;7.15;;;;;;;;;;4988265;28;20772;-68
2022/07/13 05:43:14;;;;;;;11.85;6.82;;;;;;;;;;4983533;28;20053;-67
2022/07/13 05:45:41;;;;;;;16.15;6.55;;;;;;;;;;4966480;28;20085;-67
2022/07/13 05:48:08;;;;;;;10.73;6.57;;;;;;;;;;4979774;28;20058;-67
2022/07/13 05:50:35;;;;;;;15.50;6.35;;;;;;;;;;4981427;28;20129;-68
2022/07/13 05:53:02;;;;;;;13.63;6.97;;;;;;;;;;4985421;28;20050;-67
2022/07/13 05:55:29;;;;;;;16.35;6.53;;;;;;;;;;4986556;28;20468;-67
2022/07/13 05:57:57;;;;;;;16.15;6.50;;;;;;;;;;4985764;28;20159;-68
2022/07/13 06:00:25;;;;;;;14.40;7.13;;;;;;;;;;4986319;28;20061;-67
2022/07/13 06:02:53;;;;;;;18.60;6.85;;;;;;;;;;4984382;28;20057;-67
2022/07/13 06:05:21;;;;;;;12.60;6.55;;;;;;;;;;4983445;28;20057;-68
2022/07/13 06:07:48;;;;;;;14.70;6.88;;;;;;;;;;4983466;28;20108;-67
2022/07/13 06:10:15;;;;;;;26.52;7.65;;;;;;;;;;4983013;28;20505;-67
2022/07/13 06:12:42;;;;;;;18.67;6.63;;;;;;;;;;4984169;28;20050;-67
2022/07/13 06:15:10;;;;;;;23.77;8.40;;;;;;;;;;4982233;28;20054;-66
2022/07/13 06:17:38;;;;;;;18.02;7.57;;;;;;;;;;4982456;28;20046;-67
2022/07/13 06:20:06;;;;;;;14.73;7.55;;;;;;;;;;4982167;28;20050;-67
2022/07/13 06:22:34;;;;;;;15.25;7.32;;;;;;;;;;4983626;28;20050;-67
2022/07/13 06:25:03;;;;;;;14.27;7.70;;;;;;;;;;4983006;28;20101;-66
2022/07/13 06:27:30;;;;;;;16.48;7.43;;;;;;;;;;4985379;28;20080;-67
2022/07/13 06:29:58;;;;;;;16.13;7.40;;;;;;;;;;4983927;28;20065;-67
2022/07/13 06:32:25;;;;;;;14.77;7.88;;;;;;;;;;4983968;28;20042;-67
2022/07/13 06:34:54;;;;;;;12.57;7.50;;;;;;;;;;4981210;28;20711;-67
2022/07/13 06:37:21;;;;;;;15.40;7.47;;;;;;;;;;4984218;28;20058;-67
2022/07/13 06:39:48;;;;;;;14.50;7.05;;;;;;;;;;4983595;28;20591;-67
2022/07/13 06:42:15;;;;;;;14.77;7.57;;;;;;;;;;4964660;28;20186;-68
2022/07/13 06:44:42;;;;;;;14.57;7.15;;;;;;;;;;4983527;28;20223;-67
2022/07/13 06:47:09;;;;;;;13.00;6.85;;;;;;;;;;4983278;28;20058;-67
2022/07/13 06:49:37;;;;;;;13.32;7.63;;;;;;;;;;4980641;28;20050;-67
2022/07/13 06:52:06;;;;;;;13.40;6.60;;;;;;;;;;4978950;28;20047;-67
2022/07/13 06:54:33;;;;;;;11.82;6.47;;;;;;;;;;4983432;28;20054;-67
2022/07/13 06:57:00;;;;;;;13.68;7.20;;;;;;;;;;4981568;28;20065;-67
2022/07/13 06:59:27;;;;;;;14.18;8.50;;;;;;;;;;4983299;28;20809;-67
2022/07/13 07:01:54;;;;;;;15.18;8.13;;;;;;;;;;4982540;28;20062;-68
2022/07/13 07:04:21;;;;;;;13.98;8.02;;;;;;;;;;4964550;28;20079;-68
2022/07/13 07:06:49;;;;;;;15.80;7.20;;;;;;;;;;4985474;28;20050;-68
2022/07/13 07:09:17;;;;;;;17.90;6.70;;;;;;;;;;4978724;28;20054;-67
2022/07/13 07:11:46;;;;;;;14.57;5.65;;;;;;;;;;4981633;28;20145;-67
2022/07/13 07:14:13;;;;;;;11.00;6.47;;;;;;;;;;4959494;28;20148;-68
2022/07/13 07:16:42;;;;;;;10.02;5.75;;;;;;;;;;4981617;28;20042;-68
2022/07/13 07:19:09;;;;;;;10.25;4.75;;;;;;;;;;4966509;28;21243;-67
2022/07/13 07:21:37;;;;;;;10.27;4.10;;;;;;;;;;4984242;28;20650;-67
2022/07/13 07:24:04;;;;;;;7.68;3.78;;;;;;;;;;4984594;28;20042;-67
2022/07/13 07:26:32;;;;;;;10.38;3.95;;;;;;;;;;4980554;28;20055;-67
2022/07/13 07:29:00;;;;;;;10.63;3.85;;;;;;;;;;4988550;28;20498;-67
2022/07/13 07:31:28;;;;;;;7.53;3.58;;;;;;;;;;4985594;28;20042;-67
2022/07/13 07:33:55;;;;;;;7.15;3.20;;;;;;;;;;4983367;28;20042;-67
2022/07/13 07:36:22;;;;;;;6.78;3.53;;;;;;;;;;4963766;28;20061;-67
2022/07/13 07:38:50;;;;;;;7.90;3.50;;;;;;;;;;4977304;28;20054;-67
2022/07/13 07:41:17;;;;;;;6.47;3.10;;;;;;;;;;4982590;28;20058;-67
2022/07/13 07:43:46;;;;;;;6.43;3.00;;;;;;;;;;4982821;28;20042;-67
2022/07/13 07:46:13;;;;;;;5.00;3.30;;;;;;;;;;4981966;28;20083;-66
2022/07/13 07:48:41;;;;;;;7.70;3.08;;;;;;;;;;4983484;28;20757;-67
2022/07/13 07:51:08;;;;;;;6.20;2.72;;;;;;;;;;4981247;28;20382;-67
2022/07/13 07:53:35;;;;;;;33.65;5.45;;;;;;;;;;4982087;28;20069;-66
2022/07/13 07:56:02;;;;;;;9.13;2.70;;;;;;;;;;4982515;28;20108;-67
2022/07/13 07:58:30;;;;;;;8.65;3.30;;;;;;;;;;4967313;28;20500;-66
2022/07/13 08:00:58;;;;;;;9.80;3.78;;;;;;;;;;4983176;28;20054;-67
2022/07/13 08:03:25;;;;;;;10.00;3.38;;;;;;;;;;4981661;28;20054;-67
2022/07/13 08:05:55;;;;;;;5.22;3.10;;;;;;;;;;4982679;28;20050;-67
2022/07/13 08:08:22;;;;;;;10.15;3.30;;;;;;;;;;4981399;28;20050;-68
2022/07/13 08:10:49;;;;;;;9.60;3.25;;;;;;;;;;4978974;28;20058;-68
2022/07/13 08:13:16;;;;;;;6.28;3.15;;;;;;;;;;4982022;28;20062;-67
2022/07/13 08:15:44;;;;;;;10.73;3.10;;;;;;;;;;4982596;28;20125;-67
2022/07/13 08:18:12;;;;;;;5.82;3.35;;;;;;;;;;4981499;28;20049;-67
2022/07/13 08:20:39;;;;;;;4.85;3.00;;;;;;;;;;4980555;28;20050;-68
2022/07/13 08:23:50;;;;;;;7.50;3.38;;;;;;;;;;4979315;28;20070;-68
2022/07/13 08:25:54;;;;;;;9.07;3.40;;;;;;;;;;4981579;28;20046;-67
2022/07/13 08:28:21;;;;;;;10.10;3.58;;;;;;;;;;4980032;28;20046;-67
2022/07/13 08:30:48;;;;;;;10.73;3.80;;;;;;;;;;4985864;28;20050;-67
2022/07/13 08:33:17;;;;;;;16.80;4.13;;;;;;;;;;4984989;28;20124;-67
2022/07/13 08:38:38;;;;;;;6.15;2.92;;;;;;;;;;4986680;28;20048;-67
2022/07/13 08:41:06;;;;;;;7.95;3.00;;;;;;;;;;4978350;28;20157;-67
2022/07/13 08:43:34;;;;;;;6.50;3.08;;;;;;;;;;4985679;28;20046;-67
2022/07/13 08:46:04;;;;;;;4.82;2.75;;;;;;;;;;4986385;28;20054;-67
2022/07/13 08:48:36;;;;;;;5.80;2.83;;;;;;;;;;4968748;28;20128;-68
2022/07/13 08:51:03;;;;;;;7.47;3.00;;;;;;;;;;4989896;28;20694;-67
2022/07/13 08:53:30;;;;;;;6.43;2.88;;;;;;;;;;4991014;28;20060;-67
2022/07/13 08:55:58;;;;;;;6.38;3.13;;;;;;;;;;4991458;28;20065;-67
2022/07/13 08:58:26;;;;;;;7.40;3.33;;;;;;;;;;4991092;28;20046;-67
2022/07/13 09:00:53;;;;;;;5.80;2.80;;;;;;;;;;4989630;28;20592;-68
2022/07/13 09:03:20;;;;;;;6.10;2.58;;;;;;;;;;4989873;28;20057;-68
2022/07/13 09:05:49;;;;;;;5.28;2.47;;;;;;;;;;4988211;28;20093;-68
2022/07/13 09:08:16;;;;;;;6.25;2.95;;;;;;;;;;4987435;28;20054;-68
2022/07/13 09:10:52;;;;;;;7.20;2.45;;;;;;;;;;4984525;28;20156;-67
2022/07/13 09:13:33;;;;;;;7.90;2.92;;;;;;;;;;4986237;28;20133;-67
2022/07/13 09:16:13;;;;;;;5.50;2.42;;;;;;;;;;4988770;28;20056;-66
2022/07/13 09:18:40;;;;;;;5.55;2.20;;;;;;;;;;4992091;28;20190;-68
2022/07/13 09:21:09;;;;;;;4.75;2.33;;;;;;;;;;4987943;28;20421;-67
2022/07/13 09:23:36;;;;;;;4.57;1.88;;;;;;;;;;4985286;28;20050;-66
2022/07/13 09:26:04;;;;;;;8.25;2.25;;;;;;;;;;4986117;28;20105;-67
2022/07/13 09:28:42;;;;;;;4.20;1.77;;;;;;;;;;4985019;28;20054;-67
2022/07/13 09:31:09;;;;;;;6.03;1.88;;;;;;;;;;4983904;28;20076;-67
2022/07/13 09:33:37;;;;;;;3.65;2.00;;;;;;;;;;4985054;28;20046;-68
2022/07/13 09:36:11;;;;;;;5.13;1.83;;;;;;;;;;4985535;28;20050;-66
2022/07/13 09:38:39;;;;;;;3.95;2.00;;;;;;;;;;4983179;28;20148;-67
2022/07/13 09:41:21;;;;;;;4.65;2.00;;;;;;;;;;4985166;28;20061;-67
2022/07/13 09:46:49;;;;;;;5.30;2.03;;;;;;;;;;4987889;28;20042;-68
2022/07/13 09:49:17;;;;;;;6.95;2.10;;;;;;;;;;4969322;28;20278;-68
2022/07/13 09:51:46;;;;;;;5.25;1.95;;;;;;;;;;4985415;28;20058;-68
2022/07/13 09:54:14;;;;;;;3.92;2.15;;;;;;;;;;4987100;28;20129;-68
2022/07/13 09:56:45;;;;;;;3.42;1.85;;;;;;;;;;4988648;28;20548;-66
2022/07/13 09:59:12;;;;;;;5.00;1.85;;;;;;;;;;4986716;28;20042;-68
2022/07/13 10:01:39;;;;;;;4.05;1.80;;;;;;;;;;4984855;28;20046;-68
2022/07/13 10:04:08;;;;;;;3.90;1.95;;;;;;;;;;4984404;28;20097;-67
2022/07/13 10:06:35;;;;;;;3.30;1.60;;;;;;;;;;4986845;28;20096;-68
2022/07/13 10:09:04;;;;;;;4.55;1.75;;;;;;;;;;4982833;28;21021;-67
2022/07/13 10:11:31;;;;;;;7.57;1.67;;;;;;;;;;4981859;28;20116;-67
2022/07/13 10:13:59;;;;;;;3.65;1.38;;;;;;;;;;4989893;28;20042;-68
2022/07/13 10:16:29;;;;;;;6.45;1.70;;;;;;;;;;4984179;28;20042;-67
2022/07/13 10:18:57;;;;;;;3.53;1.60;;;;;;;;;;4982987;28;20532;-67
2022/07/13 10:21:27;;;;;;;2.08;1.38;;;;;;;;;;4981982;28;20129;-67
2022/07/13 10:23:54;;;;;;;3.25;1.63;;;;;;;;;;4987124;28;20053;-67
2022/07/13 10:26:25;;;;;;;9.27;1.85;;;;;;;;;;4986696;28;20050;-68
2022/07/13 10:29:05;;;;;;;3.53;1.90;;;;;;;;;;4984555;28;20851;-68
2022/07/13 10:31:33;;;;;;;4.82;1.77;;;;;;;;;;4979436;28;20058;-68
2022/07/13 10:34:01;;;;;;;4.72;1.73;;;;;;;;;;4981774;28;20081;-67
2022/07/13 10:36:46;;;;;;;3.30;1.50;;;;;;;;;;4982936;28;20049;-68
2022/07/13 10:39:14;;;;;;;4.68;1.70;;;;;;;;;;4983280;28;20092;-66
2022/07/13 10:44:37;;;;;;;5.53;1.95;;;;;;;;;;5112994;27;20619;-66
2022/07/13 10:47:05;;;;;;;4.63;1.90;;;;;;;;;;5096023;28;20820;-66
2022/07/13 10:49:37;;;;;;;3.70;1.95;;;;;;;;;;5099675;28;20052;-66
2022/07/13 10:52:25;;;;;;;5.22;1.90;;;;;;;;;;5092744;28;20076;-66
2022/07/13 10:55:19;;;;;;;3.35;2.03;;;;;;;;;;5100169;28;20131;-67
2022/07/13 10:57:46;;;;;;;3.42;1.90;;;;;;;;;;5057753;28;20040;-66
2022/07/13 11:00:18;;;;;;;6.20;2.35;;;;;;;;;;5095238;28;20044;-66
2022/07/13 11:02:47;;;;;;;6.63;1.98;;;;;;;;;;5092905;28;20450;-67
2022/07/13 11:05:17;;;;;;;3.67;2.03;;;;;;;;;;5075092;28;20479;-66
2022/07/13 11:07:44;;;;;;;4.35;2.38;;;;;;;;;;5097319;28;20055;-66
2022/07/13 11:10:22;;;;;;;3.67;2.00;;;;;;;;;;5092990;28;20136;-66
2022/07/13 11:13:00;;;;;;;7.40;2.45;;;;;;;;;;5095373;28;20555;-65
2022/07/13 11:18:29;;;;;;;6.95;2.30;;;;;;;;;;5120623;27;20394;-67
2022/07/13 11:20:56;;;;;;;6.75;2.72;;;;;;;;;;5097572;28;20443;-67
2022/07/13 11:26:13;;;;;;;5.55;2.40;;;;;;;;;;5093120;28;20972;-65
2022/07/13 11:28:45;;;;;;;5.15;2.35;;;;;;;;;;5092361;28;20048;-67
2022/07/13 11:31:14;;;;;;;6.28;2.45;;;;;;;;;;5091897;28;20048;-67
2022/07/13 11:33:51;;;;;;;4.20;2.20;;;;;;;;;;5092026;28;20044;-67
2022/07/13 11:36:21;;;;;;;4.32;2.13;;;;;;;;;;5096202;28;20075;-67
2022/07/13 11:38:49;;;;;;;4.85;2.42;;;;;;;;;;5094739;28;20386;-65
2022/07/13 11:41:20;;;;;;;9.60;2.53;;;;;;;;;;5092185;28;20106;-67
2022/07/13 11:43:48;;;;;;;12.85;2.70;;;;;;;;;;5091588;28;20050;-67
2022/07/13 11:46:15;;;;;;;7.68;2.60;;;;;;;;;;5093981;28;20055;-66
2022/07/13 11:48:42;;;;;;;8.50;2.42;;;;;;;;;;5090297;28;20056;-66
2022/07/13 11:51:15;;;;;;;8.07;2.30;;;;;;;;;;5090964;28;20580;-66
2022/07/13 11:53:42;;;;;;;9.27;2.55;;;;;;;;;;5088955;28;21480;-66
2022/07/13 11:56:09;;;;;;;8.13;2.70;;;;;;;;;;5094816;28;20055;-66
2022/07/13 11:58:39;;;;;;;8.85;2.67;;;;;;;;;;5098499;28;20040;-66
2022/07/13 12:01:13;;;;;;;9.43;2.45;;;;;;;;;;5095563;28;20059;-66
2022/07/13 12:03:41;;;;;;;9.98;2.70;;;;;;;;;;5092763;28;20075;-66
2022/07/13 12:06:09;;;;;;;6.80;2.60;;;;;;;;;;5092263;28;20075;-66
2022/07/13 12:08:38;;;;;;;9.23;2.30;;;;;;;;;;5099821;28;20553;-66
2022/07/13 12:11:07;;;;;;;10.45;2.90;;;;;;;;;;5092252;28;20040;-66
2022/07/13 12:13:35;;;;;;;7.07;2.60;;;;;;;;;;5098023;28;20545;-66
2022/07/13 12:16:02;;;;;;;8.20;2.70;;;;;;;;;;5091222;28;20152;-67
2022/07/13 12:18:30;;;;;;;6.78;2.67;;;;;;;;;;5091792;28;20048;-66
2022/07/13 12:20:58;;;;;;;13.30;2.95;;;;;;;;;;5089651;28;20049;-66
2022/07/13 12:23:27;;;;;;;10.02;2.30;;;;;;;;;;5088589;28;20048;-66
2022/07/13 12:26:08;;;;;;;6.20;2.38;;;;;;;;;;5090322;28;20044;-67
2022/07/13 12:28:39;;;;;;;7.03;2.88;;;;;;;;;;5079958;28;20044;-66
2022/07/13 12:31:07;;;;;;;6.68;2.30;;;;;;;;;;5076331;28;20509;-67
2022/07/13 12:33:42;;;;;;;7.18;2.60;;;;;;;;;;5081479;28;20495;-66
2022/07/13 12:36:10;;;;;;;6.72;2.30;;;;;;;;;;5078947;28;20048;-66
2022/07/13 12:38:52;;;;;;;9.88;2.78;;;;;;;;;;5080468;28;20067;-67
2022/07/13 12:41:27;;;;;;;8.88;2.88;;;;;;;;;;5081484;28;20526;-68
2022/07/13 12:43:56;;;;;;;8.82;2.83;;;;;;;;;;5083046;28;20076;-66
2022/07/13 12:46:24;;;;;;;10.75;2.72;;;;;;;;;;5082132;28;20638;-67
2022/07/13 12:48:59;;;;;;;7.80;2.40;;;;;;;;;;5079495;28;20083;-66
2022/07/13 12:51:27;;;;;;;5.90;2.33;;;;;;;;;;5082527;28;20460;-67
2022/07/13 12:53:56;;;;;;;8.15;2.28;;;;;;;;;;5081174;28;20171;-67
2022/07/13 12:56:24;;;;;;;8.32;2.53;;;;;;;;;;5083816;28;20056;-68
2022/07/13 12:58:53;;;;;;;10.30;2.65;;;;;;;;;;5083681;28;20052;-67
2022/07/13 13:01:27;;;;;;;9.40;2.30;;;;;;;;;;5080217;28;20060;-67
2022/07/13 13:03:54;;;;;;;7.22;2.50;;;;;;;;;;5082968;28;20074;-67
2022/07/13 13:06:21;;;;;;;7.65;2.70;;;;;;;;;;5081037;28;20113;-67
2022/07/13 13:08:49;;;;;;;9.95;2.70;;;;;;;;;;5079803;28;20059;-67
2022/07/13 13:11:16;;;;;;;6.22;2.53;;;;;;;;;;5079536;28;20048;-66
2022/07/13 13:13:43;;;;;;;6.07;2.20;;;;;;;;;;5080890;28;20048;-67
2022/07/13 13:16:12;;;;;;;6.43;2.67;;;;;;;;;;5078928;28;20048;-67
2022/07/13 13:18:39;;;;;;;9.20;2.78;;;;;;;;;;5080536;28;20044;-67
2022/07/13 13:21:06;;;;;;;7.97;2.70;;;;;;;;;;5077312;28;20056;-67
2022/07/13 13:23:33;;;;;;;7.45;2.42;;;;;;;;;;5077290;28;20040;-67
2022/07/13 13:26:03;;;;;;;7.13;2.30;;;;;;;;;;5078752;28;20051;-66
2022/07/13 13:30:43;;;;;;;8.18;2.60;;;;;;;;;;5082021;28;20059;-66
2022/07/13 13:31:19;;;;;;;9.90;3.08;;;;;;;;;;5076965;28;20127;-67
2022/07/13 13:33:46;;;;;;;9.65;2.75;;;;;;;;;;5078858;28;20123;-68
2022/07/13 13:36:13;;;;;;;11.35;2.83;;;;;;;;;;5080662;28;20446;-67
2022/07/13 13:38:40;;;;;;;13.40;3.00;;;;;;;;;;5081815;28;20056;-67
2022/07/13 13:41:08;;;;;;;9.52;3.15;;;;;;;;;;5083574;28;20060;-67
2022/07/13 13:43:35;;;;;;;9.00;2.55;;;;;;;;;;5079925;28;20052;-67
2022/07/13 13:46:02;;;;;;;7.38;3.00;;;;;;;;;;5080360;28;20056;-66
2022/07/13 13:48:31;;;;;;;7.90;2.70;;;;;;;;;;5081166;28;20063;-68
2022/07/13 13:50:58;;;;;;;9.27;2.88;;;;;;;;;;5083829;28;20073;-67
2022/07/13 13:53:25;;;;;;;10.95;3.45;;;;;;;;;;5085541;28;20047;-67
2022/07/13 13:55:53;;;;;;;10.10;3.00;;;;;;;;;;5087307;28;20056;-67
2022/07/13 13:58:20;;;;;;;15.55;3.78;;;;;;;;;;5077909;28;20577;-67
2022/07/13 14:00:47;;;;;;;13.27;4.03;;;;;;;;;;5082225;28;20494;-67
2022/07/13 14:03:14;;;;;;;9.65;3.40;;;;;;;;;;5079000;28;20047;-67
2022/07/13 14:05:43;;;;;;;18.25;4.05;;;;;;;;;;5081012;28;20047;-68
2022/07/13 14:08:10;;;;;;;15.05;4.22;;;;;;;;;;5081464;28;20114;-67
2022/07/13 14:10:37;;;;;;;13.23;3.35;;;;;;;;;;5081549;28;20044;-66
2022/07/13 14:13:05;;;;;;;10.20;3.83;;;;;;;;;;5079214;28;20043;-67
2022/07/13 14:15:34;;;;;;;9.27;2.97;;;;;;;;;;5084710;28;20097;-67
2022/07/13 14:18:01;;;;;;;11.88;3.72;;;;;;;;;;5080401;28;20127;-67
2022/07/13 14:20:28;;;;;;;14.63;4.25;;;;;;;;;;5081691;28;20078;-67
2022/07/13 14:22:57;;;;;;;11.45;3.75;;;;;;;;;;5082169;28;20052;-67
2022/07/13 14:25:25;;;;;;;12.27;3.60;;;;;;;;;;5082276;28;20045;-66
2022/07/13 14:27:52;;;;;;;16.50;3.85;;;;;;;;;;5083954;28;20052;-67
2022/07/13 14:30:19;;;;;;;11.93;3.58;;;;;;;;;;5085269;28;20050;-67
2022/07/13 14:32:47;;;;;;;13.30;3.85;;;;;;;;;;5077154;28;20052;-67
2022/07/13 14:35:14;;;;;;;11.30;3.42;;;;;;;;;;5082907;28;20110;-67
2022/07/13 14:37:41;;;;;;;10.50;4.00;;;;;;;;;;5080638;28;20078;-67
2022/07/13 14:40:10;;;;;;;12.55;4.00;;;;;;;;;;5087013;28;20328;-67
2022/07/13 14:42:38;;;;;;;13.27;4.25;;;;;;;;;;5074485;28;20067;-67
2022/07/13 14:45:05;;;;;;;14.13;4.20;;;;;;;;;;5085364;28;20486;-66
2022/07/13 14:47:33;;;;;;;16.95;4.20;;;;;;;;;;5082499;28;20052;-67
2022/07/13 14:50:00;;;;;;;14.20;4.32;;;;;;;;;;5083300;28;20044;-68
2022/07/13 14:52:27;;;;;;;15.32;4.65;;;;;;;;;;5082129;28;20055;-67